Mitsukawa Maru — JD2495 — position and weather

sailwx.info

Track history (hours):
 
Tides and Currents Weather Stations Pressure Air Temp Water Temp Dewpoint Dewpoint Depression Visibility Wind Speed Wind Dir Waves Ship Positions

Mitsukawa Maru

Last reported at 2017-Sep-08 18:25 UTC. Time now 2017-Sep-26 14:54 UTC.
Position N 34°47' E 139°12'.
Warning: this ship's position is 17 days out of date.

Length 105 m; draft 6.7 m.

Type: Ship (hazmat cat A). MMSI: 431000326.

Date/timePositionNaut miles runAvg speedWind from/ knotsBaromVisibWave heightAir tempDewpointWater temp
2017-Sep-08 18:25N 34°47' E 139°12'1211.6
2017-Sep-08 17:22N 34°55' E 139°22'411.0
2017-Sep-08 17:00N 34°58' E 139°26'611.3
2017-Sep-08 16:30N 35°01' E 139°32'612.5
2017-Sep-08 16:00N 35°05' E 139°38'714.3
2017-Sep-08 15:30N 35°10' E 139°44'612.7
2017-Sep-08 15:01N 35°16' E 139°46'612.8
2017-Sep-08 14:30N 35°22' E 139°42'713.1
2017-Sep-08 14:00N 35°27' E 139°47'714.0
2017-Sep-08 13:30N 35°31' E 139°54'713.9
2017-Sep-08 13:00N 35°34' E 140°02'4 7.6
2017-Sep-08 12:27N 35°35' E 140°07'0 0.0
2017-Sep-08 05:18N 35°35' E 140°07'0 0.0
2017-Sep-08 04:57N 35°35' E 140°07'0 0.0
2017-Sep-08 03:21N 35°35' E 140°07'0 0.0
2017-Sep-08 02:10N 35°35' E 140°07'0 0.0
2017-Sep-08 01:59N 35°35' E 140°07'1 1.3
2017-Sep-08 01:23N 35°35' E 140°06'3 5.9
2017-Sep-08 00:55N 35°35' E 140°03'2 3.4
2017-Sep-08 00:25N 35°34' E 140°01'1 0.2
2017-Sep-07 17:56N 35°34' E 139°60'511.0
2017-Sep-07 17:31N 35°31' E 139°55'612.2
2017-Sep-07 17:01N 35°27' E 139°50'611.9
2017-Sep-07 16:30N 35°22' E 139°45'511.0
2017-Sep-07 16:01N 35°17' E 139°46'611.3
2017-Sep-07 15:31N 35°11' E 139°47'611.4
2017-Sep-07 15:00N 35°06' E 139°45'611.7
2017-Sep-07 14:30N 35°01' E 139°41'612.8
2017-Sep-07 14:00N 34°58' E 139°34'713.7
2017-Sep-07 13:30N 34°54' E 139°27'714.2
2017-Sep-07 13:00N 34°50' E 139°20'714.4
2017-Sep-07 12:29N 34°45' E 139°13'217 5.7
2017-Sep-05 22:28N 34°02' E 134°55'613.7
2017-Sep-05 22:01N 34°08' E 134°56'714.0
2017-Sep-05 21:29N 34°15' E 134°58'612.3
2017-Sep-05 20:58N 34°22' E 134°58'613.3
2017-Sep-05 20:30N 34°28' E 135°00'613.2
2017-Sep-05 20:00N 34°34' E 135°03'5 9.8
2017-Sep-05 19:30N 34°36' E 134°57'714.6
2017-Sep-05 19:00N 34°33' E 134°49'  
Track history (hours):
 
Tides and Currents Weather Stations Pressure Air Temp Water Temp Dewpoint Dewpoint Depression Visibility Wind Speed Wind Dir Waves Ship Positions

Mitsukawa Maru

Last reported at 2017-Sep-08 18:25 UTC. Time now 2017-Sep-26 14:55 UTC.
Position N 34°47' E 139°12'.
Warning: this ship's position is 17 days out of date.

Length 105 m; draft 6.7 m.

Type: Ship (hazmat cat A). MMSI: 431000326.

Date/timePositionNaut miles runAvg speedWind from/ knotsBaromVisibWave heightAir tempDewpointWater temp
2017-Sep-08 18:25N 34°47' E 139°12'1211.6
2017-Sep-08 17:22N 34°55' E 139°22'411.0
2017-Sep-08 17:00N 34°58' E 139°26'611.3
2017-Sep-08 16:30N 35°01' E 139°32'612.5
2017-Sep-08 16:00N 35°05' E 139°38'714.3
2017-Sep-08 15:30N 35°10' E 139°44'612.7
2017-Sep-08 15:01N 35°16' E 139°46'612.8
2017-Sep-08 14:30N 35°22' E 139°42'713.1
2017-Sep-08 14:00N 35°27' E 139°47'714.0
2017-Sep-08 13:30N 35°31' E 139°54'713.9
2017-Sep-08 13:00N 35°34' E 140°02'4 7.6
2017-Sep-08 12:27N 35°35' E 140°07'0 0.0
2017-Sep-08 05:18N 35°35' E 140°07'0 0.0
2017-Sep-08 04:57N 35°35' E 140°07'0 0.0
2017-Sep-08 03:21N 35°35' E 140°07'0 0.0
2017-Sep-08 02:10N 35°35' E 140°07'0 0.0
2017-Sep-08 01:59N 35°35' E 140°07'1 1.3
2017-Sep-08 01:23N 35°35' E 140°06'3 5.9
2017-Sep-08 00:55N 35°35' E 140°03'2 3.4
2017-Sep-08 00:25N 35°34' E 140°01'1 0.2
2017-Sep-07 17:56N 35°34' E 139°60'511.0
2017-Sep-07 17:31N 35°31' E 139°55'612.2
2017-Sep-07 17:01N 35°27' E 139°50'611.9
2017-Sep-07 16:30N 35°22' E 139°45'511.0
2017-Sep-07 16:01N 35°17' E 139°46'611.3
2017-Sep-07 15:31N 35°11' E 139°47'611.4
2017-Sep-07 15:00N 35°06' E 139°45'611.7
2017-Sep-07 14:30N 35°01' E 139°41'612.8
2017-Sep-07 14:00N 34°58' E 139°34'713.7
2017-Sep-07 13:30N 34°54' E 139°27'714.2
2017-Sep-07 13:00N 34°50' E 139°20'714.4
2017-Sep-07 12:29N 34°45' E 139°13'217 5.7
2017-Sep-05 22:28N 34°02' E 134°55'613.7
2017-Sep-05 22:01N 34°08' E 134°56'714.0
2017-Sep-05 21:29N 34°15' E 134°58'612.3
2017-Sep-05 20:58N 34°22' E 134°58'613.3
2017-Sep-05 20:30N 34°28' E 135°00'613.2
2017-Sep-05 20:00N 34°34' E 135°03'5 9.8
2017-Sep-05 19:30N 34°36' E 134°57'714.6
2017-Sep-05 19:00N 34°33' E 134°49'  

Dump ship's entire track history